Time;durP1;ratioP1;P1;durP2;ratioP2;P2;SDS_P1;SDS_P2;PMS_P1;PMS_P2;Temp;Humidity;BMP_temperature;BMP_pressure;BME280_temperature;BME280_humidity;BME280_pressure;Samples;Min_cycle;Max_cycle;Signal;HPM_P1;HPM_P2
2023/07/26 00:02:01;;;;;;;2.17;1.40;;;;;;;;;;5069114;28;20252;-59
2023/07/26 00:04:28;;;;;;;1.42;1.30;;;;;;;;;;5053990;28;20214;-59
2023/07/26 00:06:55;;;;;;;1.40;1.30;;;;;;;;;;5053435;28;20199;-59
2023/07/26 00:09:22;;;;;;;1.48;1.38;;;;;;;;;;5068933;28;20669;-59
2023/07/26 00:11:50;;;;;;;1.30;1.20;;;;;;;;;;5069011;28;20227;-59
2023/07/26 00:14:18;;;;;;;2.60;1.55;;;;;;;;;;5068602;28;20665;-59
2023/07/26 00:16:45;;;;;;;1.83;1.20;;;;;;;;;;5068940;28;20243;-59
2023/07/26 00:19:12;;;;;;;1.38;1.23;;;;;;;;;;5068416;28;20214;-59
2023/07/26 00:21:39;;;;;;;1.30;1.23;;;;;;;;;;5062862;28;20207;-59
2023/07/26 00:24:06;;;;;;;1.52;1.30;;;;;;;;;;5058743;28;20202;-59
2023/07/26 00:26:33;;;;;;;3.28;1.33;;;;;;;;;;5068934;28;20215;-59
2023/07/26 00:29:00;;;;;;;2.53;1.30;;;;;;;;;;5059728;28;20216;-59
2023/07/26 00:31:29;;;;;;;2.45;1.05;;;;;;;;;;5048736;28;20212;-60
2023/07/26 00:33:56;;;;;;;2.78;1.38;;;;;;;;;;5059552;28;20211;-59
2023/07/26 00:36:23;;;;;;;2.97;1.25;;;;;;;;;;5052338;28;20567;-59
2023/07/26 00:38:50;;;;;;;2.97;1.30;;;;;;;;;;5049080;28;20222;-59
2023/07/26 00:41:17;;;;;;;2.80;1.10;;;;;;;;;;5049364;28;20207;-59
2023/07/26 00:43:44;;;;;;;2.47;1.17;;;;;;;;;;5048539;28;20231;-60
2023/07/26 00:46:11;;;;;;;1.10;1.10;;;;;;;;;;5048683;28;20227;-60
2023/07/26 00:48:40;;;;;;;1.00;1.00;;;;;;;;;;5048566;28;20214;-59
2023/07/26 00:51:07;;;;;;;1.10;1.10;;;;;;;;;;5060640;28;20218;-59
2023/07/26 00:53:35;;;;;;;1.52;1.40;;;;;;;;;;5068421;28;20240;-59
2023/07/26 00:56:02;;;;;;;1.13;1.10;;;;;;;;;;5057310;28;20231;-59
2023/07/26 00:58:29;;;;;;;1.48;1.38;;;;;;;;;;5047271;28;20207;-59
2023/07/26 01:00:56;;;;;;;1.42;1.10;;;;;;;;;;5056524;28;20218;-59
2023/07/26 01:03:23;;;;;;;2.30;1.15;;;;;;;;;;5058277;28;20199;-59
2023/07/26 01:05:56;;;;;;;1.05;1.00;;;;;;;;;;5053881;28;20211;-59
2023/07/26 01:08:27;;;;;;;2.10;1.15;;;;;;;;;;5065799;28;20218;-59
2023/07/26 01:10:56;;;;;;;1.30;1.30;;;;;;;;;;5067188;28;20207;-58
2023/07/26 01:13:26;;;;;;;1.00;1.00;;;;;;;;;;5047974;28;20234;-59
2023/07/26 01:15:53;;;;;;;1.13;1.13;;;;;;;;;;5048294;28;20214;-59
2023/07/26 01:18:20;;;;;;;2.67;1.20;;;;;;;;;;5048150;28;20247;-59
2023/07/26 01:20:47;;;;;;;1.10;1.00;;;;;;;;;;5058621;28;20203;-59
2023/07/26 01:23:15;;;;;;;1.63;1.27;;;;;;;;;;5065794;28;20207;-59
2023/07/26 01:25:42;;;;;;;2.92;1.15;;;;;;;;;;5067606;28;20212;-59
2023/07/26 01:28:09;;;;;;;1.23;1.20;;;;;;;;;;5068240;28;20309;-59
2023/07/26 01:30:37;;;;;;;1.00;1.00;;;;;;;;;;5067411;28;20214;-59
2023/07/26 01:33:07;;;;;;;1.15;1.15;;;;;;;;;;5067002;28;20226;-59
2023/07/26 01:35:35;;;;;;;1.10;1.10;;;;;;;;;;5067980;28;20219;-59
2023/07/26 01:38:02;;;;;;;4.00;1.25;;;;;;;;;;5060862;28;20207;-58
2023/07/26 01:40:31;;;;;;;1.65;1.10;;;;;;;;;;5047862;28;20238;-58
2023/07/26 01:42:58;;;;;;;0.90;0.90;;;;;;;;;;5053324;28;20653;-59
2023/07/26 01:45:25;;;;;;;1.83;1.20;;;;;;;;;;5067839;28;20209;-58
2023/07/26 01:47:54;;;;;;;0.88;0.88;;;;;;;;;;5067408;28;20214;-58
2023/07/26 01:50:21;;;;;;;3.85;0.88;;;;;;;;;;5059037;28;20257;-58
2023/07/26 01:52:48;;;;;;;1.30;0.80;;;;;;;;;;5047645;28;20227;-58
2023/07/26 01:55:15;;;;;;;3.10;1.10;;;;;;;;;;5047697;28;20211;-58
2023/07/26 01:57:44;;;;;;;2.80;1.00;;;;;;;;;;5064202;28;20622;-58
2023/07/26 02:00:11;;;;;;;0.68;0.68;;;;;;;;;;5068011;28;20218;-59
2023/07/26 02:02:38;;;;;;;1.00;1.00;;;;;;;;;;5067803;28;20211;-59
2023/07/26 02:05:06;;;;;;;1.80;0.90;;;;;;;;;;5067322;28;20236;-58
2023/07/26 02:07:33;;;;;;;1.23;1.20;;;;;;;;;;5067735;28;20422;-59
2023/07/26 02:10:00;;;;;;;0.80;0.80;;;;;;;;;;5067615;28;20665;-58
2023/07/26 02:12:27;;;;;;;5.18;1.00;;;;;;;;;;5065701;28;20234;-59
2023/07/26 02:14:56;;;;;;;0.93;0.93;;;;;;;;;;5067541;28;20629;-59
2023/07/26 02:17:23;;;;;;;1.00;0.93;;;;;;;;;;5061135;28;20238;-59
2023/07/26 02:19:50;;;;;;;1.65;0.90;;;;;;;;;;5050134;28;20212;-59
2023/07/26 02:22:17;;;;;;;0.80;0.80;;;;;;;;;;5051389;28;20215;-59
2023/07/26 02:24:44;;;;;;;1.15;1.15;;;;;;;;;;5059207;28;20289;-59
2023/07/26 02:27:11;;;;;;;1.20;1.08;;;;;;;;;;5063679;28;20210;-59
2023/07/26 02:29:38;;;;;;;4.05;1.08;;;;;;;;;;5062749;28;20559;-59
2023/07/26 02:32:07;;;;;;;2.65;0.90;;;;;;;;;;5071077;28;20215;-59
2023/07/26 02:34:35;;;;;;;2.55;0.88;;;;;;;;;;5070092;28;20210;-59
2023/07/26 02:37:02;;;;;;;1.02;0.85;;;;;;;;;;5052031;28;20200;-59
2023/07/26 02:39:29;;;;;;;0.95;0.68;;;;;;;;;;5053479;28;20207;-59
2023/07/26 02:41:56;;;;;;;0.75;0.75;;;;;;;;;;5070986;28;20211;-59
2023/07/26 02:44:23;;;;;;;1.27;1.02;;;;;;;;;;5066488;28;20227;-59
2023/07/26 02:46:50;;;;;;;0.90;0.90;;;;;;;;;;5050888;28;20222;-59
2023/07/26 02:49:18;;;;;;;1.13;0.82;;;;;;;;;;5050922;28;20207;-59
2023/07/26 02:51:45;;;;;;;1.23;1.17;;;;;;;;;;5054764;28;20551;-59
2023/07/26 02:54:13;;;;;;;1.83;0.98;;;;;;;;;;5070729;28;20266;-59
2023/07/26 02:56:40;;;;;;;1.38;1.30;;;;;;;;;;5054543;28;20226;-59
2023/07/26 02:59:07;;;;;;;0.80;0.80;;;;;;;;;;5050849;28;20218;-58
2023/07/26 03:01:34;;;;;;;0.98;0.90;;;;;;;;;;5050935;28;20203;-58
2023/07/26 03:04:01;;;;;;;2.45;0.93;;;;;;;;;;5050530;28;20250;-58
2023/07/26 03:06:29;;;;;;;2.90;1.00;;;;;;;;;;5050684;28;20215;-60
2023/07/26 03:08:56;;;;;;;0.80;0.80;;;;;;;;;;5064803;28;20211;-59
2023/07/26 03:11:23;;;;;;;0.85;0.85;;;;;;;;;;5068962;28;20203;-58
2023/07/26 03:13:50;;;;;;;0.85;0.85;;;;;;;;;;5055160;28;20336;-58
2023/07/26 03:16:17;;;;;;;2.55;0.90;;;;;;;;;;5070071;28;20673;-58
2023/07/26 03:18:44;;;;;;;1.95;0.80;;;;;;;;;;5070477;28;20238;-59
2023/07/26 03:21:12;;;;;;;1.52;0.80;;;;;;;;;;5054311;28;20213;-58
2023/07/26 03:23:41;;;;;;;1.00;0.80;;;;;;;;;;5050112;28;20207;-58
2023/07/26 03:26:08;;;;;;;1.85;0.90;;;;;;;;;;5049946;28;20212;-58
2023/07/26 03:28:35;;;;;;;0.80;0.80;;;;;;;;;;5050269;28;20214;-58
2023/07/26 03:31:02;;;;;;;1.55;1.45;;;;;;;;;;5056006;28;20207;-59
2023/07/26 03:33:29;;;;;;;4.57;1.10;;;;;;;;;;5070051;28;20230;-58
2023/07/26 03:35:56;;;;;;;3.58;1.00;;;;;;;;;;5069684;28;20211;-59
2023/07/26 03:38:23;;;;;;;0.80;0.80;;;;;;;;;;5070244;28;20207;-59
2023/07/26 03:40:51;;;;;;;1.73;1.00;;;;;;;;;;5064982;28;20234;-59
2023/07/26 03:43:18;;;;;;;1.20;1.05;;;;;;;;;;5069871;28;20232;-58
2023/07/26 03:45:45;;;;;;;1.00;1.00;;;;;;;;;;5068935;28;20207;-59
2023/07/26 03:48:12;;;;;;;1.50;0.80;;;;;;;;;;5062537;28;20257;-59
2023/07/26 03:50:39;;;;;;;1.48;0.93;;;;;;;;;;5049606;28;20218;-59
2023/07/26 03:53:06;;;;;;;2.10;1.05;;;;;;;;;;5049462;28;20602;-58
2023/07/26 03:55:33;;;;;;;0.85;0.85;;;;;;;;;;5049143;28;20207;-59
2023/07/26 03:58:02;;;;;;;4.80;1.00;;;;;;;;;;5049601;28;20215;-59
2023/07/26 04:00:29;;;;;;;0.90;0.90;;;;;;;;;;5048597;28;20208;-59
2023/07/26 04:02:56;;;;;;;3.03;0.82;;;;;;;;;;5049389;28;20215;-59
2023/07/26 04:05:23;;;;;;;0.90;0.90;;;;;;;;;;5049155;28;20207;-58
2023/07/26 04:07:50;;;;;;;3.90;1.08;;;;;;;;;;5048901;28;20238;-59
2023/07/26 04:10:17;;;;;;;0.70;0.70;;;;;;;;;;5049206;28;20211;-59
2023/07/26 04:12:44;;;;;;;3.60;1.05;;;;;;;;;;5058149;28;20214;-58
2023/07/26 04:15:13;;;;;;;0.90;0.90;;;;;;;;;;5059562;28;20231;-59
2023/07/26 04:17:40;;;;;;;2.35;1.05;;;;;;;;;;5049066;28;20246;-59
2023/07/26 04:20:07;;;;;;;1.30;1.20;;;;;;;;;;5049297;28;20211;-59
2023/07/26 04:22:34;;;;;;;0.95;0.95;;;;;;;;;;5056601;28;20214;-59
2023/07/26 04:25:01;;;;;;;1.90;0.80;;;;;;;;;;5050017;28;20577;-58
2023/07/26 04:27:28;;;;;;;1.40;1.20;;;;;;;;;;5049707;28;20208;-59
2023/07/26 04:29:55;;;;;;;1.52;1.25;;;;;;;;;;5069023;28;20677;-58
2023/07/26 04:32:24;;;;;;;1.92;1.10;;;;;;;;;;5068677;28;20211;-58
2023/07/26 04:34:51;;;;;;;1.02;0.93;;;;;;;;;;5059187;28;20234;-58
2023/07/26 04:37:18;;;;;;;0.80;0.80;;;;;;;;;;5068016;28;20207;-58
2023/07/26 04:39:47;;;;;;;0.90;0.90;;;;;;;;;;5055913;28;20668;-59
2023/07/26 04:42:14;;;;;;;0.93;0.93;;;;;;;;;;5047989;28;20273;-58
2023/07/26 04:44:42;;;;;;;1.65;0.90;;;;;;;;;;5056690;28;20206;-59
2023/07/26 04:47:09;;;;;;;1.02;1.00;;;;;;;;;;5068666;28;20655;-58
2023/07/26 04:49:37;;;;;;;1.13;1.02;;;;;;;;;;5064459;28;20551;-58
2023/07/26 04:52:05;;;;;;;1.45;0.90;;;;;;;;;;5055145;28;20212;-58
2023/07/26 04:54:32;;;;;;;1.10;1.00;;;;;;;;;;5048528;28;20227;-58
2023/07/26 04:56:59;;;;;;;2.15;1.10;;;;;;;;;;5048577;28;20402;-58
2023/07/26 04:59:26;;;;;;;0.90;0.90;;;;;;;;;;5048904;28;20937;-59
2023/07/26 05:01:53;;;;;;;1.05;0.95;;;;;;;;;;5046767;28;20207;-59
2023/07/26 05:04:20;;;;;;;1.30;1.20;;;;;;;;;;5048375;28;20208;-59
2023/07/26 05:06:48;;;;;;;3.13;1.02;;;;;;;;;;5066635;28;20207;-59
2023/07/26 05:09:15;;;;;;;0.98;0.98;;;;;;;;;;5068396;28;20217;-59
2023/07/26 05:11:42;;;;;;;2.10;1.00;;;;;;;;;;5068299;28;20218;-59
2023/07/26 05:14:09;;;;;;;1.10;1.10;;;;;;;;;;5068047;28;20262;-58
2023/07/26 05:16:36;;;;;;;1.55;1.00;;;;;;;;;;5067644;28;20230;-59
2023/07/26 05:19:03;;;;;;;1.20;1.10;;;;;;;;;;5068424;28;20206;-59
2023/07/26 05:21:30;;;;;;;1.20;1.20;;;;;;;;;;5068434;28;20213;-58
2023/07/26 05:23:59;;;;;;;1.75;0.90;;;;;;;;;;5052462;28;20649;-58
2023/07/26 05:26:26;;;;;;;1.65;0.85;;;;;;;;;;5065425;28;20214;-58
2023/07/26 05:28:53;;;;;;;0.93;0.90;;;;;;;;;;5057653;28;20207;-59
2023/07/26 05:31:20;;;;;;;1.40;1.15;;;;;;;;;;5047770;28;20214;-59
2023/07/26 05:33:47;;;;;;;1.00;1.00;;;;;;;;;;5047561;28;20227;-59
2023/07/26 05:36:14;;;;;;;1.27;1.20;;;;;;;;;;5061723;28;20614;-59
2023/07/26 05:38:41;;;;;;;1.13;1.13;;;;;;;;;;5067748;28;20215;-59
2023/07/26 05:41:09;;;;;;;1.48;1.10;;;;;;;;;;5067830;28;20217;-59
2023/07/26 05:43:36;;;;;;;6.70;1.10;;;;;;;;;;5067464;28;20227;-59
2023/07/26 05:46:03;;;;;;;2.15;1.25;;;;;;;;;;5067320;28;20234;-59
2023/07/26 05:48:31;;;;;;;1.30;1.20;;;;;;;;;;5067661;28;20211;-59
2023/07/26 05:50:58;;;;;;;1.85;1.10;;;;;;;;;;5066932;28;20210;-59
2023/07/26 05:53:25;;;;;;;1.55;1.20;;;;;;;;;;5059662;28;20215;-59
2023/07/26 05:55:52;;;;;;;3.15;1.23;;;;;;;;;;5061180;28;20233;-59
2023/07/26 05:58:20;;;;;;;6.40;2.15;;;;;;;;;;5071281;28;20211;-58
2023/07/26 06:00:48;;;;;;;2.65;1.40;;;;;;;;;;5071376;28;20203;-59
2023/07/26 06:03:15;;;;;;;1.85;1.58;;;;;;;;;;5051370;28;20215;-57
2023/07/26 06:05:42;;;;;;;3.70;1.88;;;;;;;;;;5051234;28;20220;-59
2023/07/26 06:08:09;;;;;;;3.05;1.45;;;;;;;;;;5051289;28;20203;-58
2023/07/26 06:10:36;;;;;;;1.38;1.27;;;;;;;;;;5058221;28;20202;-58
2023/07/26 06:13:03;;;;;;;2.35;1.05;;;;;;;;;;5062759;28;20211;-58
2023/07/26 06:15:31;;;;;;;1.85;1.15;;;;;;;;;;5061300;28;20223;-59
2023/07/26 06:17:58;;;;;;;1.10;1.10;;;;;;;;;;5057697;28;20229;-59
2023/07/26 06:20:25;;;;;;;1.15;1.02;;;;;;;;;;5060114;28;20210;-58
2023/07/26 06:22:52;;;;;;;1.10;1.00;;;;;;;;;;5061760;28;20203;-58
2023/07/26 06:25:19;;;;;;;0.98;0.98;;;;;;;;;;5060506;28;20222;-59
2023/07/26 06:27:46;;;;;;;1.20;1.20;;;;;;;;;;5059627;28;20212;-58
2023/07/26 06:30:15;;;;;;;2.53;1.15;;;;;;;;;;5060606;28;20572;-58
2023/07/26 06:32:43;;;;;;;1.42;0.90;;;;;;;;;;5061122;28;20199;-59
2023/07/26 06:35:12;;;;;;;1.33;1.33;;;;;;;;;;5060984;28;20227;-58
2023/07/26 06:37:39;;;;;;;0.90;0.90;;;;;;;;;;5060310;28;20398;-58
2023/07/26 06:40:06;;;;;;;1.80;1.58;;;;;;;;;;5061270;28;20960;-58
2023/07/26 06:42:33;;;;;;;1.02;1.02;;;;;;;;;;5059605;28;20227;-58
2023/07/26 06:45:01;;;;;;;1.20;1.20;;;;;;;;;;5060150;28;20199;-58
2023/07/26 06:47:28;;;;;;;1.30;1.20;;;;;;;;;;5061206;28;20203;-58
2023/07/26 06:49:56;;;;;;;1.55;1.30;;;;;;;;;;5059574;28;20789;-58
2023/07/26 06:52:23;;;;;;;1.30;1.20;;;;;;;;;;5060283;28;20606;-58
2023/07/26 06:54:50;;;;;;;2.40;1.20;;;;;;;;;;5056273;28;20215;-58
2023/07/26 06:57:17;;;;;;;1.60;1.05;;;;;;;;;;5062135;28;20648;-58
2023/07/26 06:59:44;;;;;;;1.42;1.02;;;;;;;;;;5060118;28;20218;-59
2023/07/26 07:02:12;;;;;;;1.58;1.13;;;;;;;;;;5060603;28;20207;-58
2023/07/26 07:04:39;;;;;;;3.47;1.38;;;;;;;;;;5053283;28;20200;-58
2023/07/26 07:07:07;;;;;;;1.02;1.00;;;;;;;;;;5065758;28;20206;-59
2023/07/26 07:09:34;;;;;;;3.45;1.30;;;;;;;;;;5068258;28;20877;-58
2023/07/26 07:12:01;;;;;;;1.50;1.40;;;;;;;;;;5069009;28;20218;-58
2023/07/26 07:14:28;;;;;;;2.38;1.20;;;;;;;;;;5069803;28;20223;-58
2023/07/26 07:16:55;;;;;;;2.90;1.30;;;;;;;;;;5068735;28;20231;-62
2023/07/26 07:19:22;;;;;;;1.35;1.25;;;;;;;;;;5069581;28;20634;-62
2023/07/26 07:21:49;;;;;;;3.50;1.40;;;;;;;;;;5051840;28;20207;-62
2023/07/26 07:24:18;;;;;;;1.33;1.33;;;;;;;;;;5057300;28;20674;-62
2023/07/26 07:26:45;;;;;;;2.50;1.23;;;;;;;;;;5049223;28;20738;-62
2023/07/26 07:29:12;;;;;;;1.27;1.08;;;;;;;;;;5048062;28;20298;-62
2023/07/26 07:31:39;;;;;;;1.23;1.20;;;;;;;;;;5049648;28;20215;-62
2023/07/26 07:34:06;;;;;;;2.35;1.20;;;;;;;;;;5053686;28;20242;-62
2023/07/26 07:36:33;;;;;;;1.58;1.55;;;;;;;;;;5069332;28;20214;-62
2023/07/26 07:39:00;;;;;;;3.22;1.20;;;;;;;;;;5069105;28;20210;-62
2023/07/26 07:41:28;;;;;;;1.23;1.13;;;;;;;;;;5069494;28;20308;-62
2023/07/26 07:43:55;;;;;;;1.00;1.00;;;;;;;;;;5069003;28;20234;-62
2023/07/26 07:46:24;;;;;;;1.10;1.10;;;;;;;;;;5068923;28;20215;-62
2023/07/26 07:48:51;;;;;;;1.30;1.20;;;;;;;;;;5068791;28;20207;-62
2023/07/26 07:51:18;;;;;;;1.52;1.42;;;;;;;;;;5068974;28;20202;-62
2023/07/26 07:53:45;;;;;;;1.20;1.20;;;;;;;;;;5068863;28;20211;-63
2023/07/26 07:56:12;;;;;;;1.25;1.02;;;;;;;;;;5055533;28;20223;-63
2023/07/26 07:58:41;;;;;;;0.95;0.95;;;;;;;;;;5048633;28;20223;-62
2023/07/26 08:01:08;;;;;;;1.00;1.00;;;;;;;;;;5059187;28;20207;-62
2023/07/26 08:03:35;;;;;;;1.77;1.10;;;;;;;;;;5069001;28;20218;-63
2023/07/26 08:06:02;;;;;;;1.30;1.20;;;;;;;;;;5068364;28;20203;-63
2023/07/26 08:08:29;;;;;;;1.35;1.25;;;;;;;;;;5068486;28;20241;-62
2023/07/26 08:10:56;;;;;;;4.03;1.10;;;;;;;;;;5067759;28;20215;-62
2023/07/26 08:13:23;;;;;;;3.72;1.63;;;;;;;;;;5068514;28;20532;-62
2023/07/26 08:15:52;;;;;;;2.05;1.38;;;;;;;;;;5068003;28;20230;-63
2023/07/26 08:18:19;;;;;;;1.40;1.30;;;;;;;;;;5068057;28;20238;-63
2023/07/26 08:20:46;;;;;;;1.70;1.60;;;;;;;;;;5068309;28;20502;-63
2023/07/26 08:23:13;;;;;;;1.05;1.00;;;;;;;;;;5068483;28;20222;-62
2023/07/26 08:25:40;;;;;;;2.80;1.10;;;;;;;;;;5067959;28;20202;-63
2023/07/26 08:28:07;;;;;;;1.30;1.15;;;;;;;;;;5068269;28;20217;-62
2023/07/26 08:30:34;;;;;;;2.58;0.90;;;;;;;;;;5068526;28;20522;-63
2023/07/26 08:33:03;;;;;;;3.25;1.10;;;;;;;;;;5067832;28;20217;-63
2023/07/26 08:35:30;;;;;;;1.75;1.50;;;;;;;;;;5068297;28;20265;-63
2023/07/26 08:37:57;;;;;;;1.20;1.08;;;;;;;;;;5067870;28;20218;-62
2023/07/26 08:40:25;;;;;;;1.70;1.20;;;;;;;;;;5067152;28;20680;-63
2023/07/26 08:42:52;;;;;;;1.05;1.05;;;;;;;;;;5068001;28;20223;-63
2023/07/26 08:45:19;;;;;;;2.03;1.45;;;;;;;;;;5067124;28;20601;-63
2023/07/26 08:47:47;;;;;;;3.28;1.10;;;;;;;;;;5067766;28;20238;-63
2023/07/26 08:50:15;;;;;;;1.20;1.20;;;;;;;;;;5067764;28;20203;-63
2023/07/26 08:52:42;;;;;;;1.13;1.13;;;;;;;;;;5055241;28;20215;-63
2023/07/26 08:55:11;;;;;;;2.08;0.95;;;;;;;;;;5048230;28;20238;-63
2023/07/26 08:57:38;;;;;;;2.17;1.30;;;;;;;;;;5047289;28;20227;-63
2023/07/26 09:00:07;;;;;;;2.50;1.30;;;;;;;;;;5044472;28;20222;-62
2023/07/26 09:02:34;;;;;;;1.98;1.50;;;;;;;;;;5045252;28;20606;-62
2023/07/26 09:05:02;;;;;;;1.48;1.30;;;;;;;;;;5047014;28;20204;-62
2023/07/26 09:07:31;;;;;;;0.90;0.90;;;;;;;;;;5047271;28;20219;-62
2023/07/26 09:09:58;;;;;;;1.70;1.40;;;;;;;;;;5047237;28;20212;-62
2023/07/26 09:12:26;;;;;;;1.00;1.00;;;;;;;;;;5046986;28;20682;-63
2023/07/26 09:14:58;;;;;;;1.10;1.10;;;;;;;;;;5047177;28;20254;-62
2023/07/26 09:17:37;;;;;;;1.10;1.02;;;;;;;;;;5045591;28;20235;-62
2023/07/26 09:20:05;;;;;;;1.88;1.35;;;;;;;;;;5047396;28;20246;-62
2023/07/26 09:22:33;;;;;;;3.83;1.00;;;;;;;;;;5047360;28;20208;-63
2023/07/26 09:25:00;;;;;;;1.13;1.02;;;;;;;;;;5047543;28;20219;-62
2023/07/26 09:27:27;;;;;;;1.23;1.13;;;;;;;;;;5053348;28;20219;-62
2023/07/26 09:29:55;;;;;;;1.27;1.23;;;;;;;;;;5067368;28;20616;-63
2023/07/26 09:32:27;;;;;;;0.80;0.80;;;;;;;;;;5067268;28;20210;-63
2023/07/26 09:34:55;;;;;;;3.20;1.40;;;;;;;;;;5067186;28;20997;-62
2023/07/26 09:37:22;;;;;;;1.27;1.27;;;;;;;;;;5066573;28;20290;-62
2023/07/26 09:39:51;;;;;;;2.03;1.17;;;;;;;;;;5067502;28;20210;-63
2023/07/26 09:42:18;;;;;;;1.10;1.10;;;;;;;;;;5066929;28;20207;-62
2023/07/26 09:44:46;;;;;;;1.63;1.30;;;;;;;;;;5047209;28;20631;-62
2023/07/26 09:47:17;;;;;;;1.33;1.23;;;;;;;;;;5047028;28;20293;-62
2023/07/26 09:49:51;;;;;;;1.38;1.27;;;;;;;;;;5056399;28;20645;-62
2023/07/26 09:52:21;;;;;;;1.20;1.20;;;;;;;;;;5067045;28;20305;-62
2023/07/26 09:54:49;;;;;;;1.38;1.27;;;;;;;;;;5067101;28;20330;-63
2023/07/26 09:57:18;;;;;;;1.08;1.08;;;;;;;;;;5066720;28;20215;-63
2023/07/26 09:59:46;;;;;;;0.90;0.90;;;;;;;;;;5067353;28;20275;-63
2023/07/26 10:02:13;;;;;;;0.98;0.98;;;;;;;;;;5067082;28;20210;-62
2023/07/26 10:04:43;;;;;;;1.23;1.20;;;;;;;;;;5067145;28;20203;-62
2023/07/26 10:07:12;;;;;;;1.25;0.95;;;;;;;;;;5067093;28;20203;-63
2023/07/26 10:09:43;;;;;;;1.98;1.35;;;;;;;;;;5066516;28;20206;-62
2023/07/26 10:12:10;;;;;;;1.00;1.00;;;;;;;;;;5067052;28;20211;-62
2023/07/26 10:14:39;;;;;;;0.98;0.98;;;;;;;;;;5066949;28;20245;-62
2023/07/26 10:17:07;;;;;;;1.45;1.20;;;;;;;;;;5066529;28;20253;-62
2023/07/26 10:19:34;;;;;;;1.75;1.08;;;;;;;;;;5066846;28;20235;-62
2023/07/26 10:22:01;;;;;;;1.13;1.13;;;;;;;;;;5067057;28;20525;-63
2023/07/26 10:24:28;;;;;;;1.25;1.20;;;;;;;;;;5051939;28;20606;-62
2023/07/26 10:26:55;;;;;;;1.00;0.90;;;;;;;;;;5046714;28;20238;-62
2023/07/26 10:29:22;;;;;;;3.92;1.27;;;;;;;;;;5053532;28;20207;-63
2023/07/26 10:32:00;;;;;;;1.05;1.05;;;;;;;;;;5066881;28;20219;-62
2023/07/26 10:34:27;;;;;;;1.10;1.10;;;;;;;;;;5066714;28;20226;-62
2023/07/26 10:36:54;;;;;;;1.25;1.17;;;;;;;;;;5066808;28;20541;-62
2023/07/26 10:39:29;;;;;;;1.30;1.30;;;;;;;;;;5066641;28;20309;-62
2023/07/26 10:41:56;;;;;;;1.02;1.02;;;;;;;;;;5070027;28;20242;-63
2023/07/26 10:44:23;;;;;;;0.98;0.90;;;;;;;;;;5070324;28;20233;-62
2023/07/26 10:46:53;;;;;;;0.95;0.95;;;;;;;;;;5069983;28;20207;-63
2023/07/26 10:49:24;;;;;;;1.27;1.17;;;;;;;;;;5069281;28;20230;-62
2023/07/26 10:51:56;;;;;;;1.38;1.30;;;;;;;;;;5070041;28;20214;-63
2023/07/26 10:54:33;;;;;;;1.50;1.40;;;;;;;;;;5069242;28;20202;-63
2023/07/26 10:57:16;;;;;;;1.30;1.20;;;;;;;;;;5069809;28;20230;-62
2023/07/26 10:59:50;;;;;;;1.35;1.30;;;;;;;;;;5070234;28;20600;-64
2023/07/26 11:02:34;;;;;;;2.40;1.40;;;;;;;;;;5069686;28;20219;-62
2023/07/26 11:05:02;;;;;;;1.35;1.30;;;;;;;;;;5070120;28;20207;-61
2023/07/26 11:07:44;;;;;;;1.40;1.30;;;;;;;;;;5069820;28;20613;-61
2023/07/26 11:10:17;;;;;;;1.80;1.08;;;;;;;;;;5069493;28;20221;-61
2023/07/26 11:12:44;;;;;;;1.20;1.20;;;;;;;;;;5069788;28;20241;-61
2023/07/26 11:15:11;;;;;;;1.45;1.35;;;;;;;;;;5068974;28;20237;-62
2023/07/26 11:17:43;;;;;;;1.40;1.30;;;;;;;;;;5069475;28;20242;-62
2023/07/26 11:20:10;;;;;;;1.45;1.45;;;;;;;;;;5069425;28;20671;-61
2023/07/26 11:22:38;;;;;;;1.25;1.25;;;;;;;;;;5069305;28;20245;-62
2023/07/26 11:25:05;;;;;;;1.27;1.27;;;;;;;;;;5069264;28;20218;-62
2023/07/26 11:27:33;;;;;;;1.33;1.33;;;;;;;;;;5069485;28;20207;-62
2023/07/26 11:30:02;;;;;;;3.95;1.40;;;;;;;;;;5068414;28;20242;-61
2023/07/26 11:32:29;;;;;;;1.63;1.58;;;;;;;;;;5068980;28;20206;-61
2023/07/26 11:34:57;;;;;;;1.15;1.15;;;;;;;;;;5068304;28;20534;-61
2023/07/26 11:37:24;;;;;;;1.63;1.48;;;;;;;;;;5069210;28;20211;-61
2023/07/26 11:40:03;;;;;;;1.27;1.25;;;;;;;;;;5069424;28;20207;-62
2023/07/26 11:42:30;;;;;;;1.27;1.27;;;;;;;;;;5068814;28;20207;-62
2023/07/26 11:44:57;;;;;;;4.32;1.27;;;;;;;;;;5068960;28;20211;-61
2023/07/26 11:47:24;;;;;;;2.38;1.08;;;;;;;;;;5069069;28;20214;-62
2023/07/26 11:49:51;;;;;;;0.95;0.95;;;;;;;;;;5068775;28;20685;-61
2023/07/26 11:52:19;;;;;;;1.10;1.00;;;;;;;;;;5068650;28;20234;-61
2023/07/26 11:54:57;;;;;;;1.20;1.20;;;;;;;;;;5068395;28;20215;-61
2023/07/26 11:57:25;;;;;;;1.67;1.30;;;;;;;;;;5068837;28;20206;-63
2023/07/26 11:59:52;;;;;;;0.93;0.90;;;;;;;;;;5068949;28;20211;-61
2023/07/26 12:02:19;;;;;;;0.90;0.90;;;;;;;;;;5068353;28;20203;-62
2023/07/26 12:05:01;;;;;;;0.90;0.90;;;;;;;;;;5068957;28;20226;-61
2023/07/26 12:07:30;;;;;;;0.80;0.80;;;;;;;;;;5067609;28;20208;-62
2023/07/26 12:09:57;;;;;;;0.68;0.68;;;;;;;;;;5068875;28;20673;-62
2023/07/26 12:12:24;;;;;;;2.65;0.80;;;;;;;;;;5053663;28;20231;-62
2023/07/26 12:14:51;;;;;;;0.60;0.60;;;;;;;;;;5048395;28;20207;-62
2023/07/26 12:17:18;;;;;;;0.68;0.68;;;;;;;;;;5058983;28;20261;-62
2023/07/26 12:19:46;;;;;;;0.60;0.60;;;;;;;;;;5068486;28;20230;-62
2023/07/26 12:22:13;;;;;;;1.95;0.80;;;;;;;;;;5068595;28;20207;-62
2023/07/26 12:24:55;;;;;;;1.27;0.68;;;;;;;;;;5065101;28;20618;-62
2023/07/26 12:27:22;;;;;;;0.80;0.77;;;;;;;;;;5067229;28;20335;-62
2023/07/26 12:29:49;;;;;;;0.80;0.80;;;;;;;;;;5069683;28;20207;-62
2023/07/26 12:32:17;;;;;;;0.70;0.70;;;;;;;;;;5068923;28;20217;-62
2023/07/26 12:34:44;;;;;;;0.60;0.60;;;;;;;;;;5067253;28;20742;-62
2023/07/26 12:37:12;;;;;;;0.50;0.50;;;;;;;;;;5068168;28;20229;-62
2023/07/26 12:39:39;;;;;;;0.88;0.88;;;;;;;;;;5068321;28;20214;-63
2023/07/26 12:42:08;;;;;;;0.70;0.70;;;;;;;;;;5068356;28;20210;-63
2023/07/26 12:44:35;;;;;;;0.85;0.60;;;;;;;;;;5068232;28;20343;-59
2023/07/26 12:47:02;;;;;;;1.48;0.68;;;;;;;;;;5064667;28;20203;-60
2023/07/26 12:49:29;;;;;;;1.58;0.75;;;;;;;;;;5061067;28;20211;-60
2023/07/26 12:51:57;;;;;;;1.00;1.00;;;;;;;;;;5053060;28;20231;-60
2023/07/26 12:54:24;;;;;;;0.77;0.77;;;;;;;;;;5056835;28;20264;-60
2023/07/26 12:56:52;;;;;;;0.75;0.75;;;;;;;;;;5059305;28;20223;-60
2023/07/26 12:59:20;;;;;;;4.15;0.80;;;;;;;;;;5068582;28;20237;-60
2023/07/26 13:01:47;;;;;;;1.10;0.70;;;;;;;;;;5067891;28;20622;-60
2023/07/26 13:04:15;;;;;;;0.80;0.80;;;;;;;;;;5067821;28;20218;-60
2023/07/26 13:06:42;;;;;;;1.10;1.02;;;;;;;;;;5052016;28;20295;-60
2023/07/26 13:09:09;;;;;;;0.80;0.80;;;;;;;;;;5067797;28;20211;-59
2023/07/26 13:11:36;;;;;;;0.70;0.70;;;;;;;;;;5058248;28;20211;-59
2023/07/26 13:14:03;;;;;;;2.00;0.80;;;;;;;;;;5049435;28;20211;-59
2023/07/26 13:16:32;;;;;;;1.23;0.90;;;;;;;;;;5058146;28;20226;-60
2023/07/26 13:18:59;;;;;;;0.70;0.70;;;;;;;;;;5066866;28;20210;-59
2023/07/26 13:21:26;;;;;;;0.80;0.80;;;;;;;;;;5066900;28;20297;-60
2023/07/26 13:23:53;;;;;;;0.80;0.80;;;;;;;;;;5066076;28;20263;-59
2023/07/26 13:26:20;;;;;;;0.73;0.73;;;;;;;;;;5066847;28;20210;-60
2023/07/26 13:28:47;;;;;;;0.60;0.60;;;;;;;;;;5066631;28;20302;-59
2023/07/26 13:31:16;;;;;;;0.95;0.95;;;;;;;;;;5051871;28;20207;-59
2023/07/26 13:33:44;;;;;;;0.52;0.52;;;;;;;;;;5047890;28;20207;-60
2023/07/26 13:36:11;;;;;;;0.70;0.70;;;;;;;;;;5055850;28;20235;-60
2023/07/26 13:38:39;;;;;;;0.80;0.80;;;;;;;;;;5047841;28;20211;-60
2023/07/26 13:41:06;;;;;;;4.38;3.55;;;;;;;;;;5055612;28;20290;-59
2023/07/26 13:43:33;;;;;;;0.80;0.80;;;;;;;;;;5063481;28;20230;-60
2023/07/26 13:46:00;;;;;;;0.80;0.80;;;;;;;;;;5060320;28;20283;-60
2023/07/26 13:48:27;;;;;;;2.30;0.90;;;;;;;;;;5051819;28;20207;-60
2023/07/26 13:50:55;;;;;;;0.80;0.80;;;;;;;;;;5064152;28;20203;-61
2023/07/26 13:53:22;;;;;;;0.80;0.80;;;;;;;;;;5067827;28;20214;-60
2023/07/26 13:55:50;;;;;;;0.70;0.70;;;;;;;;;;5057153;28;20222;-60
2023/07/26 13:58:17;;;;;;;0.70;0.70;;;;;;;;;;5067321;28;20210;-60
2023/07/26 14:00:44;;;;;;;0.85;0.85;;;;;;;;;;5067557;28;20665;-60
2023/07/26 14:03:11;;;;;;;1.67;0.90;;;;;;;;;;5066751;28;20621;-60
2023/07/26 14:05:39;;;;;;;1.25;0.80;;;;;;;;;;5050204;28;20211;-60
2023/07/26 14:08:07;;;;;;;0.70;0.70;;;;;;;;;;5051281;28;20849;-60
2023/07/26 14:10:34;;;;;;;0.88;0.88;;;;;;;;;;5049204;28;20204;-60
2023/07/26 14:13:01;;;;;;;1.20;1.20;;;;;;;;;;5066590;28;20207;-60
2023/07/26 14:15:28;;;;;;;1.92;0.90;;;;;;;;;;5051556;28;20207;-59
2023/07/26 14:17:55;;;;;;;1.80;1.42;;;;;;;;;;5070898;28;20710;-60
2023/07/26 14:20:22;;;;;;;0.95;0.95;;;;;;;;;;5070532;28;20681;-60
2023/07/26 14:22:49;;;;;;;1.10;1.00;;;;;;;;;;5066357;28;20704;-63
2023/07/26 14:25:18;;;;;;;1.40;0.90;;;;;;;;;;5054611;28;20211;-60
2023/07/26 14:27:45;;;;;;;1.30;0.80;;;;;;;;;;5050937;28;20216;-60
2023/07/26 14:30:12;;;;;;;1.10;0.82;;;;;;;;;;5048701;28;20212;-60
2023/07/26 14:32:39;;;;;;;2.70;0.80;;;;;;;;;;5064213;28;20210;-60
2023/07/26 14:35:06;;;;;;;1.08;1.00;;;;;;;;;;5069835;28;20207;-60
2023/07/26 14:37:34;;;;;;;1.08;0.98;;;;;;;;;;5068794;28;20231;-61
2023/07/26 14:40:01;;;;;;;0.88;0.88;;;;;;;;;;5070276;28;20207;-61
2023/07/26 14:42:30;;;;;;;0.88;0.88;;;;;;;;;;5070139;28;20310;-60
2023/07/26 14:44:57;;;;;;;1.02;1.02;;;;;;;;;;5069516;28;20238;-61
2023/07/26 14:47:24;;;;;;;0.80;0.80;;;;;;;;;;5069680;28;20684;-60